Huvudsida
METAR-TAF:

METAR-TAF

Flygplatser :

Åre Östersund Airport

Östersund-Frösön, Sverige

latitud: 63-11N, longitud: 014-30E, höjd: 376 m

Aktuellt väderrapport

Denna rapport gjordes för 19 minuter sedan, klockan 04:50 UTC
Vind 6 kt från väst/nordväst
Temperatur 5°C
Fuktighet 87%
Tryck 1034 hPa
Sikt 10 km eller mer

METAR: ESNZ 170450Z AUTO 29006KT 9999 NCD 05/03 Q1034

Tid: 06:09 (05:09 UTC)

Väderprognos

Denna rapport gjordes för 8 timmar och 39 minuter sedan, klockan 20:30 UTC
Prognos gäller från 16 kl. 21 UTC till 16 kl. 23 UTC
Vind 8 kt från väst/sydväst
Sikt 10 km eller mer
Inga moln under 1 500 m eller inga cumulonimbus

TAF: ESNZ 162030Z 1621/1623 25008KT CAVOK

Aktuella väderrapporter och prognoser från 4000 flygplatser (METAR- och TAF-rapporter).

De tillgängliga stationerna syns som gula och röda prickar på kartan.

För musen över prickarna för att se namnen på stationerna.

Klicka sedan för att få väderrapporter och prognoser.

För att ändra kartan: Klicka på de gröna knapparna med ett svart kors på för att zooma in; den gröna knappen med ett streck på för att zooma ut; eller på de gröna pilarna för angränsande kartor.


METAR-TAF: